createdAt,value
2022-12-05T00:04:58.151Z,5.17
2022-12-05T00:09:59.856Z,5.13
2022-12-05T00:15:01.447Z,5.03
2022-12-05T00:20:03.226Z,4.99
2022-12-05T00:25:06.592Z,4.99
2022-12-05T00:30:08.410Z,4.94
2022-12-05T00:35:09.756Z,4.99
2022-12-05T00:40:11.210Z,4.98
2022-12-05T00:45:12.621Z,4.91
2022-12-05T00:50:13.993Z,4.97
2022-12-05T00:55:15.465Z,5.03
2022-12-05T01:00:17.286Z,5.00
2022-12-05T01:05:18.692Z,5.00
2022-12-05T01:10:20.074Z,5.04
2022-12-05T01:15:21.444Z,5.01
2022-12-05T01:20:22.813Z,5.05
2022-12-05T01:25:24.157Z,4.94
2022-12-05T01:30:26.043Z,5.01
2022-12-05T01:35:27.441Z,5.12
2022-12-05T01:40:29.269Z,5.20
2022-12-05T01:45:38.484Z,5.24
2022-12-05T01:50:40.219Z,5.26
2022-12-05T01:55:41.823Z,5.31
2022-12-05T02:00:43.468Z,5.35
2022-12-05T02:05:48.518Z,5.40
2022-12-05T02:10:53.749Z,5.42
2022-12-05T02:16:11.346Z,5.44
2022-12-05T02:21:45.620Z,5.46
2022-12-05T02:27:08.430Z,5.48
2022-12-05T02:32:16.838Z,5.49
2022-12-05T02:37:30.085Z,5.44
2022-12-05T02:42:41.617Z,5.49
2022-12-05T02:47:52.624Z,5.52
2022-12-05T02:52:58.330Z,5.52
2022-12-05T02:58:04.762Z,5.54
2022-12-05T03:03:14.057Z,5.56
2022-12-05T03:08:21.404Z,5.57
2022-12-05T03:13:29.407Z,5.60
2022-12-05T03:18:37.884Z,5.61
2022-12-05T03:23:46.934Z,5.61
2022-12-05T03:29:08.000Z,5.60
2022-12-05T03:34:17.161Z,5.62
2022-12-05T03:39:23.740Z,5.59
2022-12-05T03:44:43.684Z,5.59
2022-12-05T03:49:50.312Z,5.60
2022-12-05T03:54:55.930Z,5.61
2022-12-05T04:00:02.205Z,5.61
2022-12-05T04:05:14.449Z,5.62
2022-12-05T04:10:22.373Z,5.62
2022-12-05T04:15:50.527Z,5.57
2022-12-05T04:21:11.305Z,5.46
2022-12-05T04:26:29.821Z,5.38
2022-12-05T04:31:37.657Z,5.43
2022-12-05T04:36:46.792Z,5.40
2022-12-05T04:41:55.725Z,5.36
2022-12-05T04:47:01.159Z,5.46
2022-12-05T04:52:07.478Z,5.50
2022-12-05T04:57:27.559Z,5.38
2022-12-05T05:02:35.041Z,5.44
2022-12-05T05:07:45.094Z,5.52
2022-12-05T05:12:46.489Z,5.53
2022-12-05T05:17:47.851Z,5.57
2022-12-05T05:22:50.734Z,5.59
2022-12-05T05:27:54.401Z,5.64
2022-12-05T05:32:55.748Z,5.58
2022-12-05T05:37:57.525Z,5.55
2022-12-05T05:42:58.918Z,5.51
2022-12-05T05:48:00.339Z,5.50
2022-12-05T05:53:01.709Z,5.41
2022-12-05T05:58:03.100Z,5.33
2022-12-05T06:03:04.656Z,5.36
2022-12-05T06:08:06.233Z,5.33
2022-12-05T06:13:07.700Z,5.33
2022-12-05T06:18:09.037Z,5.32
2022-12-05T06:23:10.739Z,5.29
2022-12-05T06:28:12.081Z,5.24
2022-12-05T06:33:13.650Z,5.06
2022-12-05T06:38:15.024Z,5.11
2022-12-05T06:43:16.398Z,5.13
2022-12-05T06:48:17.736Z,5.21
2022-12-05T06:53:20.082Z,5.18
2022-12-05T06:58:21.450Z,5.22
2022-12-05T07:03:23.463Z,5.29
2022-12-05T07:08:24.809Z,5.44
2022-12-05T07:13:26.260Z,5.53
2022-12-05T07:18:28.011Z,5.48
2022-12-05T07:23:29.561Z,5.56
2022-12-05T07:28:30.904Z,5.60
2022-12-05T07:33:32.338Z,5.61
2022-12-05T07:38:33.793Z,5.69
2022-12-05T07:43:35.389Z,5.71
2022-12-05T07:48:37.081Z,5.81
2022-12-05T07:53:39.593Z,5.80
2022-12-05T07:58:40.949Z,5.74
2022-12-05T08:03:43.050Z,5.82
2022-12-05T08:08:44.893Z,5.90
2022-12-05T08:13:46.453Z,5.84
2022-12-05T08:18:47.951Z,5.88
2022-12-05T08:23:49.283Z,5.97
2022-12-05T08:28:52.542Z,6.03
2022-12-05T08:33:59.043Z,6.03
2022-12-05T08:39:04.090Z,6.09
2022-12-05T08:44:06.839Z,6.10
2022-12-05T08:49:08.660Z,6.10
2022-12-05T08:54:10.869Z,6.24
2022-12-05T08:59:12.212Z,6.37
2022-12-05T09:04:13.594Z,6.39
2022-12-05T09:09:14.986Z,6.27
2022-12-05T09:14:16.962Z,6.27
2022-12-05T09:19:25.703Z,6.17
2022-12-05T09:24:27.134Z,6.21
2022-12-05T09:29:31.460Z,6.07
2022-12-05T09:34:33.166Z,6.11
2022-12-05T09:39:35.112Z,6.06
2022-12-05T09:44:55.347Z,6.01
2022-12-05T09:50:02.417Z,6.15
2022-12-05T09:55:11.379Z,6.21
2022-12-05T10:00:13.453Z,6.30
2022-12-05T10:05:38.979Z,6.23
2022-12-05T10:11:01.695Z,6.27
2022-12-05T10:16:10.798Z,6.19
2022-12-05T10:21:19.878Z,6.10
2022-12-05T10:26:22.914Z,6.09
2022-12-05T10:31:30.147Z,6.15
2022-12-05T10:36:32.040Z,6.10
2022-12-05T10:41:34.046Z,6.11
2022-12-05T10:46:35.662Z,6.17
2022-12-05T10:51:38.359Z,6.31
2022-12-05T10:56:49.290Z,6.50
2022-12-05T11:01:57.157Z,6.66
2022-12-05T11:07:04.500Z,6.66
2022-12-05T11:12:09.090Z,6.65
2022-12-05T11:17:23.970Z,6.71
2022-12-05T11:22:34.002Z,6.61
2022-12-05T11:27:35.384Z,6.64
2022-12-05T11:32:36.819Z,6.59
2022-12-05T11:38:00.272Z,6.74
2022-12-05T11:43:08.939Z,6.88
2022-12-05T11:48:33.433Z,6.91
2022-12-05T11:54:06.080Z,6.86
2022-12-05T11:59:31.987Z,6.82
2022-12-05T12:04:54.877Z,6.78
2022-12-05T12:10:27.563Z,6.74
2022-12-05T12:15:37.463Z,6.61
2022-12-05T12:20:52.818Z,6.65
2022-12-05T12:26:15.886Z,6.73
2022-12-05T12:31:54.949Z,6.72
2022-12-05T12:37:07.993Z,6.70
2022-12-05T12:42:18.179Z,6.77
2022-12-05T12:47:40.014Z,6.82
2022-12-05T12:53:13.944Z,6.74
2022-12-05T12:58:40.400Z,6.55
2022-12-05T13:04:02.857Z,6.69
2022-12-05T13:09:35.164Z,6.64
2022-12-05T13:14:39.200Z,6.61
2022-12-05T13:19:46.359Z,6.64
2022-12-05T13:24:50.555Z,6.61
2022-12-05T13:29:55.717Z,6.73
2022-12-05T13:35:00.938Z,6.90
2022-12-05T13:40:22.006Z,6.95
2022-12-05T13:45:23.556Z,6.83
2022-12-05T13:50:33.191Z,6.86
2022-12-05T13:55:38.843Z,6.94
2022-12-05T14:00:40.365Z,6.97
2022-12-05T14:05:47.067Z,6.86
2022-12-05T14:10:51.451Z,6.76
2022-12-05T14:15:54.638Z,6.84
2022-12-05T14:21:23.889Z,7.00
2022-12-05T14:26:59.139Z,7.09
2022-12-05T14:32:13.098Z,7.00
2022-12-05T14:37:14.406Z,6.98
2022-12-05T14:42:24.433Z,6.88
2022-12-05T14:47:30.037Z,6.78
2022-12-05T14:52:31.596Z,6.72
2022-12-05T14:57:43.070Z,6.69
2022-12-05T15:02:46.896Z,6.66
2022-12-05T15:07:49.878Z,6.66
2022-12-05T15:12:56.227Z,6.64
2022-12-05T15:18:05.522Z,6.63
2022-12-05T15:23:44.153Z,6.70
2022-12-05T15:29:20.763Z,6.80
2022-12-05T15:34:52.234Z,6.80
2022-12-05T15:40:14.569Z,6.75
2022-12-05T15:45:23.225Z,6.81
2022-12-05T15:50:33.656Z,6.87
2022-12-05T15:55:42.219Z,6.70
2022-12-05T16:00:46.979Z,6.88
2022-12-05T16:06:01.366Z,6.99
2022-12-05T16:11:11.003Z,6.96
2022-12-05T16:16:19.144Z,6.96
2022-12-05T16:21:38.547Z,6.92
2022-12-05T16:26:40.878Z,7.07
2022-12-05T16:31:43.703Z,6.91
2022-12-05T16:36:50.468Z,7.02
2022-12-05T16:41:52.530Z,7.01
2022-12-05T16:46:57.707Z,7.10
2022-12-05T16:52:09.446Z,7.07
2022-12-05T16:57:13.339Z,7.00
2022-12-05T17:02:18.843Z,7.07
2022-12-05T17:07:20.288Z,7.10
2022-12-05T17:12:24.539Z,7.15
2022-12-05T17:17:25.936Z,7.28
2022-12-05T17:22:28.152Z,7.31
2022-12-05T17:27:29.694Z,7.36
2022-12-05T17:32:31.074Z,7.36
2022-12-05T17:37:32.434Z,7.45
2022-12-05T17:42:33.910Z,7.42
2022-12-05T17:47:35.537Z,7.44
2022-12-05T17:52:36.881Z,7.49
2022-12-05T17:57:38.233Z,7.55
2022-12-05T18:02:39.652Z,7.60
2022-12-05T18:07:42.753Z,7.57
2022-12-05T18:12:44.212Z,7.60
2022-12-05T18:17:45.922Z,7.61
2022-12-05T18:22:48.620Z,7.62
2022-12-05T18:27:50.108Z,7.50
2022-12-05T18:32:51.815Z,7.39
2022-12-05T18:37:53.160Z,7.37
2022-12-05T18:42:54.505Z,7.54
2022-12-05T18:48:09.579Z,7.46
2022-12-05T18:53:17.478Z,7.42
2022-12-05T18:58:18.832Z,7.46
2022-12-05T19:03:20.258Z,7.51
2022-12-05T19:08:22.463Z,7.52
2022-12-05T19:13:24.002Z,7.55
2022-12-05T19:18:25.505Z,7.50
2022-12-05T19:23:27.113Z,7.50
2022-12-05T19:28:29.052Z,7.50
2022-12-05T19:33:36.604Z,7.46
2022-12-05T19:38:40.395Z,7.55
2022-12-05T19:43:43.237Z,7.53
2022-12-05T19:48:45.587Z,7.47
2022-12-05T19:53:48.431Z,7.50
2022-12-05T19:58:52.020Z,7.44
2022-12-05T20:04:00.526Z,7.45
2022-12-05T20:09:02.236Z,7.39
2022-12-05T20:14:03.604Z,7.35
2022-12-05T20:19:05.574Z,7.43
2022-12-05T20:24:07.718Z,7.45
2022-12-05T20:29:09.840Z,7.45
2022-12-05T20:34:13.494Z,7.41
2022-12-05T20:39:17.075Z,7.36
2022-12-05T20:44:18.533Z,7.40
2022-12-05T20:49:19.877Z,7.40
2022-12-05T20:54:21.369Z,7.37
2022-12-05T20:59:22.728Z,7.36
2022-12-05T21:04:24.148Z,7.38
2022-12-05T21:09:29.981Z,7.37
2022-12-05T21:14:31.784Z,7.37
2022-12-05T21:19:33.228Z,7.42
2022-12-05T21:24:34.719Z,7.38
2022-12-05T21:29:36.054Z,7.39
2022-12-05T21:34:37.477Z,7.43
2022-12-05T21:39:38.817Z,7.39
2022-12-05T21:44:40.443Z,7.41
2022-12-05T21:49:41.842Z,7.42
2022-12-05T21:54:43.165Z,7.37
2022-12-05T21:59:44.505Z,7.39
2022-12-05T22:04:46.229Z,7.37
2022-12-05T22:09:47.563Z,7.39
2022-12-05T22:14:49.124Z,7.37
2022-12-05T22:19:50.546Z,7.32
2022-12-05T22:24:51.895Z,7.35
2022-12-05T22:29:53.231Z,7.37
2022-12-05T22:34:56.956Z,7.43
2022-12-05T22:40:02.326Z,7.52
2022-12-05T22:45:04.369Z,7.61
2022-12-05T22:50:06.329Z,7.54
2022-12-05T22:55:08.289Z,7.52
2022-12-05T23:00:10.107Z,7.54
2022-12-05T23:05:11.473Z,7.59
2022-12-05T23:10:12.917Z,7.61
2022-12-05T23:15:14.360Z,7.63
2022-12-05T23:20:16.161Z,7.58
2022-12-05T23:25:17.546Z,7.58
2022-12-05T23:30:19.046Z,7.53
2022-12-05T23:35:20.429Z,7.46
2022-12-05T23:40:21.880Z,7.49
2022-12-05T23:45:23.333Z,7.55
2022-12-05T23:50:24.717Z,7.41
2022-12-05T23:55:26.109Z,7.44
